Time;durP1;ratioP1;P1;durP2;ratioP2;P2;SDS_P1;SDS_P2;PMS_P1;PMS_P2;Temp;Humidity;BMP_temperature;BMP_pressure;BME280_temperature;BME280_humidity;BME280_pressure;Samples;Min_cycle;Max_cycle;Signal;HPM_P1;HPM_P2
2023/09/29 00:00:18;;;;;;;;;;;22.10;66.30;;;22.37;43.77;98905.00;5028551;27;113823;-75
2023/09/29 00:02:50;;;;;;;;;;;22.10;66.50;;;22.35;44.16;98901.75;5059626;27;124435;-75
2023/09/29 00:05:19;;;;;;;;;;;22.10;66.60;;;22.32;44.00;98907.38;5012793;27;123376;-75
2023/09/29 00:07:47;;;;;;;;;;;22.10;66.70;;;22.26;44.15;98895.66;5032572;27;114509;-75
2023/09/29 00:10:18;;;;;;;;;;;22.00;66.80;;;22.20;44.35;98894.41;5047349;27;113535;-75
2023/09/29 00:12:45;;;;;;;;;;;22.00;67.10;;;22.15;44.53;98891.91;5041283;27;124256;-76
2023/09/29 00:15:11;;;;;;;;;;;21.90;67.10;;;22.11;44.57;98886.25;5060873;27;123985;-75
2023/09/29 00:17:38;;;;;;;;;;;21.90;67.40;;;22.10;44.85;98889.44;5049984;27;114651;-76
2023/09/29 00:20:25;;;;;;;;;;;21.90;67.60;;;22.09;44.69;98887.84;5013119;28;112829;-76
2023/09/29 00:22:53;;;;;;;;;;;21.80;67.70;;;22.05;45.01;98882.97;5028737;27;123724;-75
2023/09/29 00:25:21;;;;;;;;;;;21.80;67.90;;;22.01;45.08;98884.97;5030544;27;123197;-76
2023/09/29 00:27:51;;;;;;;;;;;21.80;68.40;;;21.95;45.45;98892.13;5023891;27;114286;-76
2023/09/29 00:30:20;;;;;;;;;;;21.80;68.40;;;21.92;45.08;98883.63;5042668;27;114841;-75
2023/09/29 00:32:51;;;;;;;;;;;21.70;68.60;;;21.89;45.46;98890.84;5027211;27;124269;-75
2023/09/29 00:35:24;;;;;;;;;;;21.70;69.00;;;21.83;45.54;98892.41;5011872;28;123249;-75
2023/09/29 00:37:53;;;;;;;;;;;21.60;69.00;;;21.78;45.50;98889.94;5027003;27;115327;-77
2023/09/29 00:40:19;;;;;;;;;;;21.60;69.10;;;21.75;45.84;98896.34;5053527;27;114882;-77
2023/09/29 00:42:46;;;;;;;;;;;21.50;69.10;;;21.71;45.89;98896.31;5028742;27;124169;-77
2023/09/29 00:45:19;;;;;;;;;;;21.50;69.50;;;21.67;46.10;98894.63;5051279;27;123849;-77
2023/09/29 00:47:46;;;;;;;;;;;21.50;69.50;;;21.66;45.93;98893.03;5029080;27;114375;-77
2023/09/29 00:50:18;;;;;;;;;;;21.40;69.60;;;21.66;45.71;98887.41;5025912;27;114176;-75
2023/09/29 00:52:46;;;;;;;;;;;21.50;69.80;;;21.65;45.93;98897.81;5030047;27;123223;-76
2023/09/29 00:55:16;;;;;;;;;;;21.40;69.70;;;21.65;45.81;98892.19;5027241;27;123843;-75
2023/09/29 00:57:44;;;;;;;;;;;21.40;69.80;;;21.63;46.21;98888.97;5026943;27;114979;-75
2023/09/29 01:00:35;;;;;;;;;;;21.40;70.00;;;21.62;46.04;98893.78;5029396;27;111651;-75
2023/09/29 01:03:06;;;;;;;;;;;21.40;70.10;;;21.56;46.29;98900.94;5028677;27;124746;-76
2023/09/29 01:05:43;;;;;;;;;;;21.40;70.40;;;21.50;46.67;98891.25;5021021;27;124744;-75
2023/09/29 01:08:14;;;;;;;;;;;21.30;70.60;;;21.44;46.42;98892.78;5026965;27;114488;-78
2023/09/29 01:10:41;;;;;;;;;;;21.20;70.50;;;21.43;46.73;98891.16;5024431;27;113699;-75
2023/09/29 01:13:10;;;;;;;;;;;21.20;70.70;;;21.42;46.53;98894.34;5019372;27;124300;-75
2023/09/29 01:15:38;;;;;;;;;;;21.20;70.90;;;21.38;46.41;98899.91;5016227;27;124210;-75
2023/09/29 01:18:06;;;;;;;;;;;21.20;71.00;;;21.33;46.42;98897.41;5026636;27;113536;-75
2023/09/29 01:20:34;;;;;;;;;;;21.10;70.90;;;21.26;46.86;98891.72;5024679;27;113750;-77
2023/09/29 01:23:02;;;;;;;;;;;21.10;71.90;;;21.15;46.71;98892.38;5023073;27;124377;-77
2023/09/29 01:25:28;;;;;;;;;;;21.00;71.00;;;21.09;46.52;98893.91;5010666;28;124012;-78
2023/09/29 01:27:56;;;;;;;;;;;21.00;71.20;;;21.07;47.30;98895.47;5047644;27;115768;-77
2023/09/29 01:30:24;;;;;;;;;;;21.00;71.60;;;21.03;46.97;98900.22;5028538;27;114968;-77
2023/09/29 01:32:52;;;;;;;;;;;20.90;71.60;;;20.99;47.27;98894.56;5026729;27;123273;-76
2023/09/29 01:35:25;;;;;;;;;;;20.90;71.80;;;20.96;46.94;98900.94;5029044;27;123759;-76
2023/09/29 01:37:55;;;;;;;;;;;20.80;71.80;;;20.96;47.03;98900.94;5029760;27;114413;-77
2023/09/29 01:40:22;;;;;;;;;;;20.80;72.00;;;20.95;47.16;98890.88;5026961;27;114446;-77
2023/09/29 01:42:49;;;;;;;;;;;20.80;72.10;;;20.93;47.03;98884.88;5026593;27;123805;-76
2023/09/29 01:45:17;;;;;;;;;;;20.70;72.20;;;20.95;47.17;98888.06;5015913;27;125228;-77
2023/09/29 01:47:47;;;;;;;;;;;20.70;72.30;;;20.96;47.12;98889.72;5030014;27;113384;-77
2023/09/29 01:50:16;;;;;;;;;;;20.70;72.50;;;20.95;47.40;98891.72;5027498;27;113846;-77
2023/09/29 01:52:44;;;;;;;;;;;20.70;72.60;;;20.95;47.21;98883.28;5027585;27;123509;-76
2023/09/29 01:55:14;;;;;;;;;;;20.70;72.70;;;20.95;47.22;98886.09;5042293;27;124057;-78
2023/09/29 01:57:44;;;;;;;;;;;20.70;72.80;;;20.95;47.06;98879.66;5027937;27;114629;-78
2023/09/29 02:00:19;;;;;;;;;;;20.70;72.90;;;20.93;47.37;98882.06;5028589;27;113607;-79
2023/09/29 02:02:46;;;;;;;;;;;20.70;73.70;;;20.91;47.45;98888.03;5049887;27;123745;-77
2023/09/29 02:05:15;;;;;;;;;;;20.70;73.10;;;20.89;47.64;98884.00;5012613;27;124701;-77
2023/09/29 02:07:42;;;;;;;;;;;20.60;73.20;;;20.87;47.28;98880.75;5030839;27;114345;-76
2023/09/29 02:10:09;;;;;;;;;;;20.60;73.20;;;20.85;47.67;98885.94;5010734;27;112903;-77
2023/09/29 02:12:51;;;;;;;;;;;20.60;73.30;;;20.82;47.31;98884.72;5010206;28;123915;-77
2023/09/29 02:15:23;;;;;;;;;;;20.60;73.40;;;20.79;47.43;98879.81;5023781;27;123049;-77
2023/09/29 02:17:49;;;;;;;;;;;20.50;73.70;;;20.73;48.00;98876.53;5026065;27;115339;-78
2023/09/29 02:20:21;;;;;;;;;;;20.50;73.80;;;20.69;48.23;98881.31;5027687;27;115177;-77
2023/09/29 02:22:48;;;;;;;;;;;20.50;74.00;;;20.64;48.04;98876.00;5056190;27;123770;-77
2023/09/29 02:25:18;;;;;;;;;;;20.50;74.10;;;20.60;47.94;98874.34;5019922;27;123913;-77
2023/09/29 02:27:46;;;;;;;;;;;20.40;74.10;;;20.58;48.33;98873.91;5011650;28;113397;-77
2023/09/29 02:30:16;;;;;;;;;;;20.40;74.30;;;20.55;48.07;98875.44;5061479;27;113600;-76
2023/09/29 02:32:42;;;;;;;;;;;20.30;74.40;;;20.54;47.94;98885.06;5030290;27;124858;-80
2023/09/29 02:35:10;;;;;;;;;;;20.30;74.50;;;20.52;48.21;98870.56;5032769;27;124147;-77
2023/09/29 02:37:39;;;;;;;;;;;20.30;74.60;;;20.49;48.32;98874.94;5025074;27;115493;-79
2023/09/29 02:40:12;;;;;;;;;;;20.30;74.80;;;20.45;48.32;98871.28;5035032;27;114049;-78
2023/09/29 02:42:39;;;;;;;;;;;20.30;74.90;;;20.44;48.20;98875.25;5031642;27;124353;-77
2023/09/29 02:45:06;;;;;;;;;;;20.20;74.90;;;20.44;48.22;98880.88;5029660;27;124012;-76
2023/09/29 02:47:32;;;;;;;;;;;20.20;75.00;;;20.43;48.52;98872.84;5061042;27;114710;-79
2023/09/29 02:49:59;;;;;;;;;;;20.20;75.10;;;20.42;48.34;98876.84;5024305;27;113903;-77
2023/09/29 02:52:26;;;;;;;;;;;20.20;75.20;;;20.40;48.31;98873.59;5026102;27;123474;-76
2023/09/29 02:54:56;;;;;;;;;;;20.20;75.30;;;20.37;48.37;98875.16;5029453;27;123877;-76
2023/09/29 02:57:24;;;;;;;;;;;20.20;75.40;;;20.36;48.51;98878.34;5029738;27;113991;-76
2023/09/29 02:59:51;;;;;;;;;;;20.10;75.40;;;20.34;48.74;98880.69;5027135;28;113856;-75
2023/09/29 03:02:19;;;;;;;;;;;20.10;75.60;;;20.33;48.78;98876.28;5029928;27;124177;-79
2023/09/29 03:04:48;;;;;;;;;;;20.10;75.70;;;20.25;48.63;98870.53;5030683;27;124002;-76
2023/09/29 03:07:15;;;;;;;;;;;20.00;75.90;;;20.21;48.61;98872.50;5061239;27;115497;-76
2023/09/29 03:09:44;;;;;;;;;;;20.00;75.90;;;20.20;48.89;98882.09;5030563;27;114655;-76
2023/09/29 03:12:11;;;;;;;;;;;20.00;76.10;;;20.21;48.63;98878.09;5028627;28;124073;-76
2023/09/29 03:14:37;;;;;;;;;;;20.00;76.20;;;20.21;48.75;98877.31;5039971;27;124079;-77
2023/09/29 03:17:04;;;;;;;;;;;19.90;76.20;;;20.16;49.11;98878.41;5031556;27;113874;-76
2023/09/29 03:19:31;;;;;;;;;;;19.90;76.60;;;20.13;48.80;98876.38;5033474;27;113662;-79
2023/09/29 03:22:00;;;;;;;;;;;19.90;76.50;;;20.12;49.27;98871.13;5029570;27;123612;-76
2023/09/29 03:24:27;;;;;;;;;;;19.90;76.60;;;20.12;49.06;98871.91;5015837;27;124370;-76
2023/09/29 03:26:53;;;;;;;;;;;19.90;76.60;;;20.13;48.62;98869.94;5041234;27;114441;-75
2023/09/29 03:29:20;;;;;;;;;;;19.90;76.70;;;20.11;49.10;98867.50;5064929;27;112884;-75
2023/09/29 03:31:47;;;;;;;;;;;19.80;76.60;;;20.10;49.02;98865.91;5055004;27;124124;-76
2023/09/29 03:34:17;;;;;;;;;;;19.80;76.70;;;20.11;48.80;98866.69;5025069;28;122971;-75
2023/09/29 03:36:43;;;;;;;;;;;19.80;76.70;;;20.10;48.62;98870.72;5030005;27;114841;-76
2023/09/29 03:39:09;;;;;;;;;;;19.80;76.80;;;20.05;49.09;98875.44;5011437;28;112730;-76
2023/09/29 03:41:35;;;;;;;;;;;20.30;77.30;;;20.02;48.92;98875.38;5028207;27;124187;-77
2023/09/29 03:44:02;;;;;;;;;;;19.80;77.00;;;20.01;49.07;98873.75;5028001;27;124150;-76
2023/09/29 03:46:29;;;;;;;;;;;19.80;77.00;;;20.00;49.07;98869.31;5063057;27;114359;-76
2023/09/29 03:48:55;;;;;;;;;;;19.80;77.10;;;19.96;49.10;98880.50;5063216;27;113557;-75
2023/09/29 03:51:22;;;;;;;;;;;19.70;77.50;;;19.90;49.38;98872.75;5027607;27;124525;-77
2023/09/29 03:53:53;;;;;;;;;;;19.70;77.50;;;19.85;49.13;98871.06;5029702;27;123037;-78
2023/09/29 03:56:22;;;;;;;;;;;19.70;77.50;;;19.81;49.27;98875.78;5028175;27;115404;-82
2023/09/29 03:58:53;;;;;;;;;;;19.60;77.50;;;19.76;49.84;98871.28;5033281;27;114662;-79
2023/09/29 04:01:20;;;;;;;;;;;19.60;78.00;;;19.59;49.99;98880.16;5029399;27;124309;-79
2023/09/29 04:03:50;;;;;;;;;;;19.50;78.40;;;19.46;50.53;98885.13;5035173;27;123675;-76
2023/09/29 04:06:16;;;;;;;;;;;19.30;78.60;;;19.35;50.53;98884.91;5048690;27;114249;-76
2023/09/29 04:08:43;;;;;;;;;;;19.20;78.70;;;19.34;50.36;98902.06;5029987;27;113753;-77
2023/09/29 04:11:10;;;;;;;;;;;19.20;78.80;;;19.35;50.48;98898.09;5028921;27;124569;-77
2023/09/29 04:13:36;;;;;;;;;;;19.20;78.80;;;19.37;50.18;98890.94;5031949;27;123803;-77
2023/09/29 04:16:09;;;;;;;;;;;19.20;79.10;;;19.42;50.16;98898.22;5029365;27;114603;-77
2023/09/29 04:18:35;;;;;;;;;;;19.20;79.10;;;19.45;50.13;98893.88;5061830;27;114051;-76
2023/09/29 04:21:01;;;;;;;;;;;19.20;79.10;;;19.47;50.19;98883.13;5028416;27;124171;-76
2023/09/29 04:23:28;;;;;;;;;;;19.20;79.30;;;19.44;50.31;98895.88;5026782;27;123983;-76
2023/09/29 04:25:55;;;;;;;;;;;19.20;79.30;;;19.43;50.21;98900.66;5049437;27;114616;-76
2023/09/29 04:28:22;;;;;;;;;;;19.20;79.50;;;19.42;50.33;98910.28;5027736;27;113649;-75
2023/09/29 04:30:50;;;;;;;;;;;19.20;79.60;;;19.42;50.16;98901.88;5029204;27;124767;-78
2023/09/29 04:33:18;;;;;;;;;;;19.20;79.60;;;19.42;50.27;98907.47;5063062;27;123626;-76
2023/09/29 04:35:44;;;;;;;;;;;19.20;79.90;;;19.42;50.23;98912.25;5031164;27;113980;-77
2023/09/29 04:38:11;;;;;;;;;;;19.20;79.90;;;19.43;50.45;98931.50;5029563;27;113930;-76
2023/09/29 04:40:37;;;;;;;;;;;19.20;79.90;;;19.43;50.33;98931.50;5047037;27;123441;-76
2023/09/29 04:43:05;;;;;;;;;;;19.20;80.30;;;19.43;50.88;98925.88;5028239;27;124577;-80
2023/09/29 04:45:33;;;;;;;;;;;19.20;80.40;;;19.39;50.55;98922.19;5012355;27;115769;-78
2023/09/29 04:48:00;;;;;;;;;;;19.10;80.30;;;19.39;50.76;98933.41;5031911;27;115007;-77
2023/09/29 04:50:30;;;;;;;;;;;19.20;80.40;;;19.42;50.64;98927.09;5045970;27;124427;-78
2023/09/29 04:52:56;;;;;;;;;;;19.20;80.50;;;19.46;50.51;98926.34;5024005;27;124150;-78
2023/09/29 04:55:23;;;;;;;;;;;19.20;80.60;;;19.48;50.64;98924.78;5037991;27;114620;-77
2023/09/29 04:57:54;;;;;;;;;;;19.20;81.20;;;19.49;51.25;98920.00;5061750;27;113561;-77
2023/09/29 05:00:23;;;;;;;;;;;19.20;81.70;;;19.50;51.12;98928.00;5027826;27;124384;-78
2023/09/29 05:02:50;;;;;;;;;;;20.50;82.90;;;19.53;51.18;98910.50;5059149;27;123599;-79
2023/09/29 05:05:16;;;;;;;;;;;19.20;82.00;;;19.56;50.98;98915.34;5028920;28;115191;-77
2023/09/29 05:07:44;;;;;;;;;;;19.20;82.70;;;19.60;51.27;98909.81;5030720;27;113682;-76
2023/09/29 05:10:11;;;;;;;;;;;19.20;82.10;;;;;;5028496;27;123642;-76
2023/09/29 05:12:37;;;;;;;;;;;19.30;82.20;;;19.67;50.93;98909.97;5027617;27;123103;-75
2023/09/29 05:15:04;;;;;;;;;;;19.30;82.10;;;19.71;51.02;98915.66;5024412;27;114890;-75
2023/09/29 05:17:31;;;;;;;;;;;19.40;82.10;;;19.76;50.78;98915.34;5031033;27;114032;-76
2023/09/29 05:19:58;;;;;;;;;;;19.40;82.10;;;19.79;50.89;98907.00;5043036;27;123813;-76
2023/09/29 05:22:24;;;;;;;;;;;19.40;82.10;;;19.81;50.77;98920.66;5027333;27;124542;-78
2023/09/29 05:24:53;;;;;;;;;;;19.40;82.10;;;19.83;50.57;98913.50;5007766;27;114716;-77
2023/09/29 05:27:20;;;;;;;;;;;19.40;82.70;;;19.87;50.78;98916.38;5020739;27;113866;-75
2023/09/29 05:29:48;;;;;;;;;;;19.50;82.20;;;19.88;50.79;98925.56;5027751;28;124255;-75
2023/09/29 05:32:15;;;;;;;;;;;19.50;82.30;;;19.88;50.56;98919.97;5029147;27;123023;-77
2023/09/29 05:34:41;;;;;;;;;;;19.50;82.10;;;19.91;50.20;98927.63;5031453;27;114915;-75
2023/09/29 05:37:07;;;;;;;;;;;19.50;82.00;;;19.94;50.50;98929.72;5027315;27;114557;-75
2023/09/29 05:39:36;;;;;;;;;;;19.50;82.10;;;19.93;50.68;98928.09;5020709;27;124542;-76
2023/09/29 05:42:03;;;;;;;;;;;20.20;82.90;;;19.91;50.51;98930.44;5016444;27;126360;-75
2023/09/29 05:44:30;;;;;;;;;;;19.50;82.20;;;19.86;50.85;98932.38;5032513;27;114531;-76
2023/09/29 05:46:56;;;;;;;;;;;19.50;82.40;;;19.83;51.11;98935.94;5037810;27;113674;-76
2023/09/29 05:49:25;;;;;;;;;;;19.50;82.50;;;19.83;51.07;98926.72;5074796;27;124128;-76
2023/09/29 05:51:51;;;;;;;;;;;19.50;82.50;;;19.85;50.87;98927.97;5072282;27;123991;-76
2023/09/29 05:54:17;;;;;;;;;;;19.50;82.50;;;19.91;50.66;98933.25;5044665;27;114326;-76
2023/09/29 05:56:43;;;;;;;;;;;19.60;82.60;;;19.95;50.60;98928.53;5040896;27;113321;-78
2023/09/29 05:59:10;;;;;;;;;;;19.60;82.50;;;20.00;50.64;98939.44;5039945;27;124061;-79
2023/09/29 06:01:36;;;;;;;;;;;19.60;82.50;;;20.05;50.59;98948.34;5041421;27;124002;-78
2023/09/29 06:04:03;;;;;;;;;;;19.70;82.70;;;20.06;50.52;98944.34;5038029;27;113854;-76
2023/09/29 06:06:29;;;;;;;;;;;19.70;82.60;;;20.11;50.67;98943.25;5032145;27;114252;-77
2023/09/29 06:08:55;;;;;;;;;;;19.70;82.50;;;20.19;50.39;98945.00;5030148;27;124534;-77
2023/09/29 06:11:24;;;;;;;;;;;19.80;82.40;;;20.24;50.52;98943.88;5030550;27;124438;-77
2023/09/29 06:13:51;;;;;;;;;;;19.90;82.40;;;20.24;50.55;98955.91;5029943;27;115101;-86
2023/09/29 06:16:17;;;;;;;;;;;19.90;82.40;;;20.23;50.57;98942.25;5033076;27;114116;-87
2023/09/29 06:18:43;;;;;;;;;;;19.90;82.70;;;20.24;50.72;98953.09;5031594;27;126777;-86
2023/09/29 06:21:09;;;;;;;;;;;19.90;83.00;;;20.27;50.80;98946.75;5042651;27;122573;-87
2023/09/29 06:23:36;;;;;;;;;;;19.90;83.00;;;20.32;50.66;98945.63;5029197;27;114231;-86
2023/09/29 06:26:02;;;;;;;;;;;20.00;82.90;;;20.33;50.49;98949.25;5034935;27;114814;-86
2023/09/29 06:28:31;;;;;;;;;;;21.40;84.20;;;20.30;50.48;98951.59;5038855;27;124293;-86
2023/09/29 06:30:57;;;;;;;;;;;19.90;82.70;;;20.29;50.44;98947.19;5046192;27;124143;-85
2023/09/29 06:33:25;;;;;;;;;;;20.00;83.00;;;20.36;50.45;98956.91;5024401;27;113591;-84
2023/09/29 06:35:57;;;;;;;;;;;20.00;83.10;;;20.45;50.68;98954.69;5017714;28;112696;-84
2023/09/29 06:38:23;;;;;;;;;;;20.00;83.20;;;20.57;50.33;98962.91;5076323;27;123649;-83
2023/09/29 06:40:49;;;;;;;;;;;20.10;83.40;;;20.69;49.98;98959.94;5043596;27;123882;-85
2023/09/29 06:43:17;;;;;;;;;;;20.20;83.10;;;20.75;50.08;98963.22;5039657;27;114326;-85
2023/09/29 06:45:45;;;;;;;;;;;20.20;82.70;;;20.77;49.68;98962.81;5046730;27;114054;-84
2023/09/29 06:48:11;;;;;;;;;;;20.30;83.20;;;20.80;49.81;98962.09;5047884;27;123944;-83
2023/09/29 06:50:38;;;;;;;;;;;20.30;82.50;;;20.86;49.51;98961.38;5040611;27;123750;-85
2023/09/29 06:53:06;;;;;;;;;;;20.40;82.60;;;20.96;49.64;98965.56;5040542;27;114858;-84
2023/09/29 06:55:35;;;;;;;;;;;20.40;82.80;;;21.05;49.39;98957.66;5065102;27;113805;-84
2023/09/29 06:58:04;;;;;;;;;;;20.50;82.80;;;21.13;49.39;98967.00;5037673;27;124465;-85
2023/09/29 07:00:31;;;;;;;;;;;20.60;82.60;;;21.19;49.03;98962.66;5043426;27;124052;-85
2023/09/29 07:02:57;;;;;;;;;;;20.60;82.50;;;21.25;48.96;98965.97;5016426;27;114468;-84
2023/09/29 07:05:24;;;;;;;;;;;20.70;82.30;;;21.30;49.16;98963.63;5045035;27;113352;-84
2023/09/29 07:07:50;;;;;;;;;;;20.80;82.10;;;21.34;48.70;98963.69;5033986;27;124697;-84
2023/09/29 07:10:17;;;;;;;;;;;20.80;82.00;;;21.39;48.86;98964.19;5045820;27;124179;-86
2023/09/29 07:12:46;;;;;;;;;;;20.90;82.00;;;21.44;48.73;98951.81;5045229;27;115357;-83
2023/09/29 07:15:12;;;;;;;;;;;20.90;81.80;;;21.50;48.60;98957.91;5077776;27;116445;-85
2023/09/29 07:17:41;;;;;;;;;;;21.00;81.80;;;21.47;48.43;98965.09;5039905;27;124680;-85
2023/09/29 07:20:08;;;;;;;;;;;21.00;81.40;;;21.46;48.28;98957.84;5024552;27;123028;-85
2023/09/29 07:22:35;;;;;;;;;;;21.00;81.30;;;21.41;48.06;98952.56;5045659;27;115058;-83
2023/09/29 07:25:06;;;;;;;;;;;21.00;81.10;;;21.39;48.46;98963.41;5036689;27;114222;-84
2023/09/29 07:27:32;;;;;;;;;;;20.90;81.10;;;21.42;48.45;98954.19;5037127;27;124093;-84
2023/09/29 07:29:59;;;;;;;;;;;21.00;81.30;;;21.46;48.76;98954.22;5032670;27;123472;-85
2023/09/29 07:32:27;;;;;;;;;;;21.00;81.40;;;21.53;48.86;98957.13;5031541;27;114471;-83
2023/09/29 07:34:54;;;;;;;;;;;21.10;81.70;;;21.61;48.49;98958.84;5030707;27;114137;-83
2023/09/29 07:37:20;;;;;;;;;;;21.10;81.50;;;21.68;48.38;98958.94;5014314;28;123425;-84
2023/09/29 07:39:49;;;;;;;;;;;21.20;81.50;;;21.74;47.97;98956.59;5038506;27;124054;-84
2023/09/29 07:42:17;;;;;;;;;;;21.20;81.20;;;21.77;47.84;98955.84;5041726;27;114589;-84
2023/09/29 07:44:43;;;;;;;;;;;21.20;81.10;;;21.77;47.80;98953.00;5038851;27;113682;-85
2023/09/29 07:47:12;;;;;;;;;;;21.30;80.80;;;21.81;47.60;98959.47;5018973;27;123189;-85
2023/09/29 07:49:40;;;;;;;;;;;21.30;80.60;;;21.85;48.10;98960.34;5037648;27;123829;-85
2023/09/29 07:52:10;;;;;;;;;;;21.30;80.60;;;21.93;47.69;98970.47;5044708;27;114741;-85
2023/09/29 07:54:36;;;;;;;;;;;21.40;80.60;;;21.98;47.28;98961.69;5040998;27;113837;-84
2023/09/29 07:57:05;;;;;;;;;;;21.40;80.30;;;22.02;47.50;98970.16;5047011;27;124022;-84
2023/09/29 07:59:33;;;;;;;;;;;21.50;80.20;;;22.05;47.20;98969.41;5030827;27;122883;-80
2023/09/29 08:01:59;;;;;;;;;;;21.50;80.00;;;22.06;47.09;98963.41;5067584;27;115848;-85
2023/09/29 08:04:26;;;;;;;;;;;21.50;79.80;;;22.10;47.33;98965.44;5038071;27;114632;-84
2023/09/29 08:06:52;;;;;;;;;;;21.60;80.00;;;22.15;47.15;98957.44;5049595;27;124755;-83
2023/09/29 08:09:18;;;;;;;;;;;21.60;79.90;;;22.20;46.81;98967.59;5027036;27;124067;-82
2023/09/29 08:11:45;;;;;;;;;;;21.70;79.70;;;22.25;47.31;98967.25;5030875;27;113697;-83
2023/09/29 08:14:12;;;;;;;;;;;21.80;79.90;;;22.34;46.94;98967.72;5031855;27;112901;-83
2023/09/29 08:16:39;;;;;;;;;;;21.80;79.80;;;22.42;46.82;98966.59;5021715;27;124008;-84
2023/09/29 08:19:07;;;;;;;;;;;21.90;79.70;;;22.50;46.72;98968.28;5071047;27;123765;-84
2023/09/29 08:21:34;;;;;;;;;;;22.00;79.70;;;22.57;46.67;98970.34;5028985;27;114423;-84
2023/09/29 08:24:03;;;;;;;;;;;22.00;79.60;;;22.67;46.80;98971.63;5022201;27;113185;-89
2023/09/29 08:26:30;;;;;;;;;;;22.10;79.60;;;22.78;46.29;98980.97;5049434;27;122956;-84
2023/09/29 08:28:59;;;;;;;;;;;22.20;79.60;;;22.89;46.10;98967.78;5037038;27;123883;-83
2023/09/29 08:31:25;;;;;;;;;;;22.20;79.30;;;23.04;46.05;98965.09;5028210;27;114510;-88
2023/09/29 08:33:52;;;;;;;;;;;22.40;79.40;;;23.12;45.76;98961.94;5029050;27;114033;-82
2023/09/29 08:36:18;;;;;;;;;;;22.50;79.10;;;23.15;45.25;98963.94;5026690;27;124262;-80
2023/09/29 08:38:45;;;;;;;;;;;22.50;78.70;;;23.18;45.77;98953.91;5036317;27;124856;-81
2023/09/29 08:41:11;;;;;;;;;;;22.60;78.70;;;23.26;45.63;98949.94;5021217;27;115080;-85
2023/09/29 08:43:39;;;;;;;;;;;22.70;78.70;;;23.34;45.46;98945.13;5039164;27;113502;-85
2023/09/29 08:46:12;;;;;;;;;;;22.70;78.60;;;23.41;45.13;98944.38;5035764;27;124458;-84
2023/09/29 08:48:42;;;;;;;;;;;22.80;78.20;;;23.47;45.18;98943.59;5036131;27;124582;-83
2023/09/29 08:51:13;;;;;;;;;;;22.90;78.20;;;23.56;45.07;98948.84;5038418;27;115333;-82
2023/09/29 08:53:44;;;;;;;;;;;23.00;78.10;;;23.61;44.81;98948.47;5030835;27;115049;-82
2023/09/29 08:56:12;;;;;;;;;;;23.10;77.70;;;23.68;44.81;98953.34;5062988;27;124282;-86
2023/09/29 08:58:41;;;;;;;;;;;23.10;77.60;;;23.75;44.68;98948.59;5042362;27;125090;-84
2023/09/29 09:01:10;;;;;;;;;;;23.20;77.50;;;23.87;44.59;98946.59;5046858;27;114509;-82
2023/09/29 09:03:37;;;;;;;;;;;23.30;77.50;;;24.00;44.47;98950.69;5068621;27;113924;-83
2023/09/29 09:06:24;;;;;;;;;;;23.30;77.30;;;24.09;43.92;98942.63;5039747;27;124036;-82
2023/09/29 09:08:53;;;;;;;;;;;23.50;77.10;;;24.17;43.91;98935.78;5031618;27;123925;-81
2023/09/29 09:11:20;;;;;;;;;;;23.50;77.00;;;24.29;44.04;98942.25;5034001;27;114673;-81
2023/09/29 09:14:13;;;;;;;;;;;23.60;76.80;;;24.33;43.88;98926.94;5028648;27;113818;-84
2023/09/29 09:16:40;;;;;;;;;;;23.70;76.50;;;24.42;43.50;98935.00;5073109;27;124253;-82
2023/09/29 09:19:10;;;;;;;;;;;23.80;76.20;;;24.51;43.22;98931.81;5062641;27;123059;-83
2023/09/29 09:21:37;;;;;;;;;;;23.90;76.00;;;24.58;43.21;98932.63;5040309;27;114029;-84
2023/09/29 09:24:07;;;;;;;;;;;23.90;75.80;;;24.69;43.11;98926.97;5039893;27;113585;-85
2023/09/29 09:26:33;;;;;;;;;;;24.00;75.60;;;24.79;42.64;98925.34;5050449;27;124570;-84
2023/09/29 09:29:08;;;;;;;;;;;24.10;75.40;;;24.91;42.64;98922.91;5061031;27;123676;-85
2023/09/29 09:31:44;;;;;;;;;;;24.20;75.20;;;25.05;42.24;98919.25;5076237;27;114530;-84
2023/09/29 09:34:12;;;;;;;;;;;24.30;74.70;;;25.17;41.59;98911.56;5039148;27;114771;-85
2023/09/29 09:36:53;;;;;;;;;;;24.50;73.70;;;25.30;41.25;98924.06;5032569;27;124909;-84
2023/09/29 09:39:23;;;;;;;;;;;24.60;73.10;;;25.43;40.80;98919.56;5044204;27;124356;-86
2023/09/29 09:41:56;;;;;;;;;;;24.70;72.50;;;25.56;40.42;98920.72;5042185;27;115495;-85
2023/09/29 09:44:26;;;;;;;;;;;24.90;71.90;;;25.69;39.84;98921.06;5030405;27;114678;-83
2023/09/29 09:46:57;;;;;;;;;;;25.00;70.90;;;25.81;38.92;98916.97;5040653;27;124352;-83
2023/09/29 09:49:28;;;;;;;;;;;25.10;69.60;;;25.93;39.04;98912.91;5057974;27;124341;-84
2023/09/29 09:51:59;;;;;;;;;;;25.20;69.10;;;26.04;38.93;98912.84;5025071;27;114722;-84
2023/09/29 09:54:29;;;;;;;;;;;25.30;68.80;;;26.14;38.48;98914.75;5062454;27;113658;-88
2023/09/29 09:57:08;;;;;;;;;;;25.50;68.70;;;26.25;38.15;98912.69;5029407;27;124458;-84
2023/09/29 09:59:35;;;;;;;;;;;25.60;68.30;;;26.34;38.24;98917.88;5017130;27;124737;-82
2023/09/29 10:02:06;;;;;;;;;;;25.70;67.60;;;26.42;38.07;98914.56;5034241;27;114610;-83
2023/09/29 10:04:36;;;;;;;;;;;25.70;67.10;;;26.50;37.33;98923.03;5054495;27;112735;-83
2023/09/29 10:07:04;;;;;;;;;;;25.80;66.70;;;26.56;37.02;98916.50;5013663;27;124540;-84
2023/09/29 10:09:43;;;;;;;;;;;25.90;65.50;;;26.63;36.82;98924.16;5036954;27;123653;-76
2023/09/29 10:12:27;;;;;;;;;;;26.00;65.40;;;26.69;36.88;98919.63;5042201;27;113849;-79
2023/09/29 10:14:58;;;;;;;;;;;26.10;64.80;;;26.79;36.71;98918.75;5071469;27;113660;-77
2023/09/29 10:17:37;;;;;;;;;;;26.20;64.50;;;26.86;36.82;98918.66;5030539;27;124192;-75
2023/09/29 10:20:04;;;;;;;;;;;26.30;64.60;;;26.95;36.61;98914.53;5031466;27;124639;-76
2023/09/29 10:22:31;;;;;;;;;;;26.30;64.20;;;27.00;36.58;98922.56;5041427;27;114258;-77
2023/09/29 10:24:59;;;;;;;;;;;26.40;63.70;;;27.05;36.34;98919.28;5055085;27;113753;-76
2023/09/29 10:27:31;;;;;;;;;;;26.50;63.90;;;27.14;36.37;98925.28;5069286;27;124182;-77
2023/09/29 10:30:13;;;;;;;;;;;26.60;63.90;;;27.19;36.28;98910.66;5025573;27;123951;-75
2023/09/29 10:32:40;;;;;;;;;;;26.60;63.60;;;27.23;36.26;98914.25;5023835;27;116022;-76
2023/09/29 10:35:11;;;;;;;;;;;26.70;63.70;;;27.30;36.64;98911.34;5021628;27;114887;-75
2023/09/29 10:37:41;;;;;;;;;;;26.80;63.60;;;27.34;36.54;98919.00;5062868;27;124816;-79
2023/09/29 10:40:10;;;;;;;;;;;26.80;63.50;;;27.38;36.37;98902.72;5014405;27;123433;-77
2023/09/29 10:42:38;;;;;;;;;;;26.90;63.40;;;27.42;36.35;98912.03;5017397;27;114489;-76
2023/09/29 10:45:05;;;;;;;;;;;26.90;63.10;;;27.47;36.01;98903.03;5013044;27;113406;-75
2023/09/29 10:47:35;;;;;;;;;;;27.00;63.10;;;27.56;36.02;98902.53;5024682;27;124363;-77
2023/09/29 10:50:06;;;;;;;;;;;27.00;63.00;;;27.64;36.10;98899.16;5039122;27;123908;-76
2023/09/29 10:52:32;;;;;;;;;;;27.10;63.00;;;27.73;36.01;98893.78;5072236;27;114423;-76
2023/09/29 10:55:04;;;;;;;;;;;27.20;62.90;;;27.86;35.83;98904.56;5074366;27;115202;-78
2023/09/29 10:57:33;;;;;;;;;;;27.20;62.50;;;27.93;35.60;98899.59;5070182;27;123973;-76
2023/09/29 11:00:02;;;;;;;;;;;27.40;62.40;;;28.02;35.61;98906.78;5026952;27;123200;-77
2023/09/29 11:02:39;;;;;;;;;;;27.40;61.90;;;28.09;35.48;98887.59;5021208;27;113972;-76
2023/09/29 11:05:11;;;;;;;;;;;27.50;61.70;;;28.17;35.46;98888.31;5043035;27;115512;-84
2023/09/29 11:07:49;;;;;;;;;;;27.60;61.40;;;28.24;35.25;98884.53;5043999;27;124613;-77
2023/09/29 11:10:19;;;;;;;;;;;27.70;61.40;;;28.32;35.10;98897.41;5036363;27;124062;-77
2023/09/29 11:12:49;;;;;;;;;;;27.80;61.40;;;28.41;35.17;98880.63;5036503;27;114629;-76
2023/09/29 11:15:16;;;;;;;;;;;27.80;61.20;;;28.50;35.19;98877.25;5030808;27;112949;-77